createdAt,value
2022-12-22T00:00:23.384Z,98336.88
2022-12-22T00:03:09.760Z,98337.03
2022-12-22T00:05:55.731Z,98339.19
2022-12-22T00:08:41.459Z,98346.53
2022-12-22T00:11:31.189Z,98364.22
2022-12-22T00:14:17.606Z,98354.81
2022-12-22T00:17:04.439Z,98358.72
2022-12-22T00:19:50.284Z,98358.13
2022-12-22T00:22:39.663Z,98367.22
2022-12-22T00:25:26.215Z,98370.19
2022-12-22T00:28:12.303Z,98377.81
2022-12-22T00:31:00.599Z,98375.09
2022-12-22T00:33:46.312Z,98371.03
2022-12-22T00:36:33.212Z,98382.53
2022-12-22T00:39:19.526Z,98390.88
2022-12-22T00:42:05.401Z,98396.00
2022-12-22T00:44:50.996Z,98389.59
2022-12-22T00:47:45.924Z,98395.00
2022-12-22T00:50:32.592Z,98390.03
2022-12-22T00:53:19.617Z,98387.81
2022-12-22T00:56:05.396Z,98392.53
2022-12-22T00:58:51.637Z,98393.78
2022-12-22T01:01:37.674Z,98390.72
2022-12-22T01:04:23.904Z,98393.28
2022-12-22T01:07:10.114Z,98398.84
2022-12-22T01:09:56.211Z,98409.44
2022-12-22T01:12:45.711Z,98408.78
2022-12-22T01:15:36.496Z,98416.81
2022-12-22T01:18:23.839Z,98428.78
2022-12-22T01:21:11.090Z,98426.34
2022-12-22T01:23:58.415Z,98429.97
2022-12-22T01:26:44.724Z,98431.31
2022-12-22T01:29:30.502Z,98430.88
2022-12-22T01:32:16.826Z,98419.47
2022-12-22T01:35:02.568Z,98425.44
2022-12-22T01:37:50.111Z,98425.22
2022-12-22T01:40:43.894Z,98431.84
2022-12-22T01:43:43.926Z,98424.75
2022-12-22T01:46:41.004Z,98435.91
2022-12-22T01:49:41.206Z,98429.91
2022-12-22T01:52:29.928Z,98432.41
2022-12-22T01:55:21.161Z,98428.03
2022-12-22T01:58:07.589Z,98431.38
2022-12-22T02:00:53.788Z,98439.53
2022-12-22T02:03:41.955Z,98439.97
2022-12-22T02:06:33.901Z,98446.56
2022-12-22T02:09:29.007Z,98454.53
2022-12-22T02:12:29.060Z,98456.88
2022-12-22T02:16:07.851Z,98455.66
2022-12-22T02:19:04.561Z,98455.94
2022-12-22T02:22:07.279Z,98457.88
2022-12-22T02:25:09.015Z,98467.44
2022-12-22T02:27:58.162Z,98470.44
2022-12-22T02:30:45.341Z,98465.38
2022-12-22T02:33:32.112Z,98463.91
2022-12-22T02:36:33.662Z,98473.22
2022-12-22T02:39:38.331Z,98477.22
2022-12-22T02:42:53.001Z,98483.97
2022-12-22T02:45:53.293Z,98492.72
2022-12-22T02:48:51.344Z,98492.28
2022-12-22T02:51:43.305Z,98487.88
2022-12-22T02:54:30.773Z,98490.06
2022-12-22T02:57:17.051Z,98483.75
2022-12-22T03:00:02.812Z,98483.59
2022-12-22T03:02:49.744Z,98473.84
2022-12-22T03:05:35.611Z,98469.44
2022-12-22T03:08:21.316Z,98470.72
2022-12-22T03:11:07.144Z,98479.47
2022-12-22T03:13:53.028Z,98473.94
2022-12-22T03:16:38.797Z,98474.41
2022-12-22T03:19:24.637Z,98486.41
2022-12-22T03:22:10.518Z,98491.50
2022-12-22T03:24:56.261Z,98485.19
2022-12-22T03:27:23.732Z,98485.56
2022-12-22T03:29:51.218Z,98489.84
2022-12-22T03:32:18.782Z,98497.59
2022-12-22T03:34:46.426Z,98501.03
2022-12-22T03:37:13.963Z,98504.44
2022-12-22T03:39:41.386Z,98497.59
2022-12-22T03:42:31.433Z,98499.66
2022-12-22T03:45:17.111Z,98491.75
2022-12-22T03:47:44.686Z,98495.94
2022-12-22T03:50:12.210Z,98490.13
2022-12-22T03:52:39.645Z,98491.75
2022-12-22T03:55:07.524Z,98499.31
2022-12-22T03:57:35.163Z,98504.09
2022-12-22T04:00:02.862Z,98501.72
2022-12-22T04:02:39.712Z,98493.31
2022-12-22T04:05:07.765Z,98482.38
2022-12-22T04:07:35.275Z,98485.38
2022-12-22T04:10:21.762Z,98498.81
2022-12-22T04:12:55.353Z,98490.44
2022-12-22T04:15:33.333Z,98501.50
2022-12-22T04:18:01.004Z,98492.25
2022-12-22T04:20:29.334Z,98499.22
2022-12-22T04:22:57.785Z,98498.53
2022-12-22T04:25:26.930Z,98478.28
2022-12-22T04:27:54.400Z,98493.69
2022-12-22T04:30:21.932Z,98499.50
2022-12-22T04:32:49.516Z,98488.13
2022-12-22T04:35:17.022Z,98497.59
2022-12-22T04:37:44.521Z,98499.09
2022-12-22T04:40:12.122Z,98511.31
2022-12-22T04:42:40.031Z,98498.00
2022-12-22T04:45:08.103Z,98495.75
2022-12-22T04:47:35.603Z,98486.34
2022-12-22T04:50:03.687Z,98486.94
2022-12-22T04:52:31.172Z,98476.53
2022-12-22T04:54:58.680Z,98483.06
2022-12-22T04:57:26.224Z,98478.16
2022-12-22T04:59:53.826Z,98476.88
2022-12-22T05:02:22.144Z,98480.88
2022-12-22T05:04:49.827Z,98491.94
2022-12-22T05:07:17.420Z,98488.63
2022-12-22T05:09:44.885Z,98492.00
2022-12-22T05:12:31.013Z,98501.78
2022-12-22T05:14:58.610Z,98516.16
2022-12-22T05:17:26.238Z,98519.34
2022-12-22T05:19:53.853Z,98518.44
2022-12-22T05:22:21.472Z,98526.94
2022-12-22T05:24:49.072Z,98523.91
2022-12-22T05:27:16.646Z,98524.19
2022-12-22T05:29:44.184Z,98515.78
2022-12-22T05:32:11.794Z,98511.50
2022-12-22T05:34:39.421Z,98504.50
2022-12-22T05:37:07.034Z,98499.34
2022-12-22T05:39:34.616Z,98508.81
2022-12-22T05:42:02.309Z,98516.44
2022-12-22T05:44:29.900Z,98514.41
2022-12-22T05:46:57.588Z,98522.44
2022-12-22T05:49:25.334Z,98521.81
2022-12-22T05:51:56.178Z,98514.56
2022-12-22T05:54:23.896Z,98522.94
2022-12-22T05:56:51.582Z,98517.03
2022-12-22T05:59:22.251Z,98490.94
2022-12-22T06:01:52.999Z,98506.00
2022-12-22T06:04:21.013Z,98506.50
2022-12-22T06:06:49.242Z,98495.91
2022-12-22T06:09:17.126Z,98501.81
2022-12-22T06:11:48.061Z,98489.25
2022-12-22T06:14:15.674Z,98491.53
2022-12-22T06:16:43.347Z,98486.59
2022-12-22T06:19:10.978Z,98484.06
2022-12-22T06:21:41.799Z,98493.06
2022-12-22T06:24:09.608Z,98494.97
2022-12-22T06:26:37.422Z,98500.34
2022-12-22T06:29:08.229Z,98502.03
2022-12-22T06:31:36.291Z,98493.34
2022-12-22T06:34:04.006Z,98485.53
2022-12-22T06:36:31.653Z,98491.41
2022-12-22T06:38:59.240Z,98494.41
2022-12-22T06:41:47.176Z,98498.72
2022-12-22T06:44:16.587Z,98485.31
2022-12-22T06:46:44.066Z,98490.44
2022-12-22T06:49:11.831Z,98489.19
2022-12-22T06:51:42.518Z,98495.53
2022-12-22T06:54:10.080Z,98491.91
2022-12-22T06:56:40.711Z,98496.44
2022-12-22T06:59:08.354Z,98477.13
2022-12-22T07:01:36.224Z,98478.47
2022-12-22T07:04:04.163Z,98490.41
2022-12-22T07:06:34.135Z,98487.75
2022-12-22T07:09:01.819Z,98490.09
2022-12-22T07:11:45.125Z,98495.16
2022-12-22T07:14:12.706Z,98489.63
2022-12-22T07:16:40.328Z,98496.44
2022-12-22T07:19:07.996Z,98489.84
2022-12-22T07:21:35.572Z,98484.53
2022-12-22T07:24:03.200Z,98477.34
2022-12-22T07:26:31.147Z,98480.44
2022-12-22T07:29:00.783Z,98474.81
2022-12-22T07:31:28.557Z,98481.81
2022-12-22T07:33:56.437Z,98480.75
2022-12-22T07:36:34.003Z,98477.56
2022-12-22T07:39:09.169Z,98478.03
2022-12-22T07:41:55.115Z,98471.66
2022-12-22T07:44:22.647Z,98464.19
2022-12-22T07:46:50.667Z,98466.06
2022-12-22T07:49:50.964Z,98464.00
2022-12-22T07:52:18.554Z,98452.97
2022-12-22T07:54:46.247Z,98449.56
2022-12-22T07:57:13.950Z,98434.50
2022-12-22T07:59:43.975Z,98432.75
2022-12-22T08:02:13.104Z,98419.88
2022-12-22T08:04:43.580Z,98417.75
2022-12-22T08:07:11.464Z,98419.84
2022-12-22T08:09:44.442Z,98417.81
2022-12-22T08:12:12.133Z,98404.31
2022-12-22T08:14:39.868Z,98412.31
2022-12-22T08:17:07.505Z,98411.97
2022-12-22T08:19:35.231Z,98409.00
2022-12-22T08:22:05.366Z,98412.19
2022-12-22T08:24:33.103Z,98391.56
2022-12-22T08:27:06.569Z,98392.88
2022-12-22T08:29:43.042Z,98392.81
2022-12-22T08:32:11.827Z,98386.97
2022-12-22T08:34:39.950Z,98390.03
2022-12-22T08:37:13.703Z,98388.72
2022-12-22T08:39:45.049Z,98391.19
2022-12-22T08:42:15.130Z,98382.53
2022-12-22T08:44:46.379Z,98375.28
2022-12-22T08:47:17.059Z,98383.44
2022-12-22T08:49:45.326Z,98375.78
2022-12-22T08:52:18.430Z,98373.28
2022-12-22T08:54:47.146Z,98363.38
2022-12-22T08:57:14.969Z,98371.13
2022-12-22T08:59:42.784Z,98367.91
2022-12-22T09:02:10.719Z,98371.97
2022-12-22T09:04:38.583Z,98369.38
2022-12-22T09:07:09.809Z,98362.50
2022-12-22T09:09:37.667Z,98368.56
2022-12-22T09:12:05.893Z,98369.00
2022-12-22T09:14:34.069Z,98354.44
2022-12-22T09:17:01.962Z,98343.53
2022-12-22T09:19:29.802Z,98328.69
2022-12-22T09:21:57.835Z,98326.94
2022-12-22T09:24:25.854Z,98320.19
2022-12-22T09:26:53.624Z,98319.25
2022-12-22T09:29:21.387Z,98320.97
2022-12-22T09:31:49.374Z,98316.25
2022-12-22T09:34:18.632Z,98311.41
2022-12-22T09:36:47.684Z,98320.13
2022-12-22T09:39:16.801Z,98319.16
2022-12-22T09:41:51.570Z,98323.84
2022-12-22T09:44:27.024Z,98326.00
2022-12-22T09:46:57.821Z,98315.72
2022-12-22T09:49:26.072Z,98317.22
2022-12-22T09:51:58.618Z,98308.25
2022-12-22T09:54:27.545Z,98310.19
2022-12-22T09:56:56.141Z,98296.00
2022-12-22T09:59:28.383Z,98285.16
2022-12-22T10:02:27.735Z,98273.66
2022-12-22T10:05:12.785Z,98276.78
2022-12-22T10:07:42.592Z,98272.50
2022-12-22T10:10:25.600Z,98274.44
2022-12-22T10:12:56.555Z,98268.59
2022-12-22T10:15:25.206Z,98272.81
2022-12-22T10:17:55.061Z,98269.88
2022-12-22T10:20:28.133Z,98284.06
2022-12-22T10:23:00.444Z,98274.75
2022-12-22T10:26:26.410Z,98275.78
2022-12-22T10:28:45.135Z,98284.78
2022-12-22T10:31:27.392Z,98264.88
2022-12-22T10:33:57.887Z,98259.28
2022-12-22T10:36:28.547Z,98253.91
2022-12-22T10:39:02.640Z,98249.69
2022-12-22T10:41:37.041Z,98248.91
2022-12-22T10:44:19.645Z,98237.03
2022-12-22T10:46:56.036Z,98226.50
2022-12-22T10:49:27.516Z,98227.94
2022-12-22T10:52:15.546Z,98222.44
2022-12-22T10:54:45.307Z,98214.03
2022-12-22T10:57:16.965Z,98210.50
2022-12-22T11:00:14.653Z,98214.34
2022-12-22T11:02:52.222Z,98202.63
2022-12-22T11:05:20.772Z,98199.00
2022-12-22T11:07:48.694Z,98200.34
2022-12-22T11:10:53.619Z,98187.19
2022-12-22T11:13:38.594Z,98193.25
2022-12-22T11:16:39.331Z,98186.56
2022-12-22T11:19:43.069Z,98181.69
2022-12-22T11:22:21.674Z,98176.31
2022-12-22T11:25:13.183Z,98159.56
2022-12-22T11:27:47.203Z,98164.59
2022-12-22T11:30:20.922Z,98144.50
2022-12-22T11:32:48.420Z,98141.13
2022-12-22T11:35:28.002Z,98155.50
2022-12-22T11:38:12.745Z,98141.09
2022-12-22T11:40:47.347Z,98144.63
2022-12-22T11:43:40.191Z,98144.06
2022-12-22T11:46:17.453Z,98139.06
2022-12-22T11:49:18.692Z,98140.59
2022-12-22T11:52:21.344Z,98135.34
2022-12-22T11:55:01.254Z,98135.44
2022-12-22T11:57:43.033Z,98130.66
2022-12-22T12:00:14.388Z,98136.50
2022-12-22T12:02:57.219Z,98129.50
2022-12-22T12:05:39.288Z,98125.03
2022-12-22T12:08:06.792Z,98129.16
2022-12-22T12:11:18.471Z,98121.66
2022-12-22T12:14:20.440Z,98127.13
2022-12-22T12:17:24.773Z,98101.97
2022-12-22T12:20:12.085Z,98080.50
2022-12-22T12:23:02.691Z,98106.16
2022-12-22T12:25:30.208Z,98101.41
2022-12-22T12:28:06.918Z,98088.50
2022-12-22T12:30:45.557Z,98088.06
2022-12-22T12:33:44.973Z,98074.50
2022-12-22T12:36:15.274Z,98060.13
2022-12-22T12:39:08.490Z,98068.84
2022-12-22T12:41:55.155Z,98066.22
2022-12-22T12:44:29.215Z,98059.50
2022-12-22T12:47:05.896Z,98051.00
2022-12-22T12:49:36.595Z,98059.75
2022-12-22T12:52:04.810Z,98052.25
2022-12-22T12:54:39.795Z,98042.75
2022-12-22T12:57:26.061Z,98035.50
2022-12-22T12:59:59.034Z,98032.31
2022-12-22T13:02:32.661Z,98031.34
2022-12-22T13:05:12.430Z,98020.47
2022-12-22T13:08:05.699Z,98019.75
2022-12-22T13:10:41.086Z,98026.94
2022-12-22T13:13:14.237Z,98021.56
2022-12-22T13:15:45.375Z,98015.66
2022-12-22T13:18:16.291Z,98021.25
2022-12-22T13:20:45.446Z,98007.09
2022-12-22T13:23:15.593Z,98004.53
2022-12-22T13:25:53.415Z,98001.16
2022-12-22T13:28:23.501Z,97982.25
2022-12-22T13:30:58.388Z,97973.63
2022-12-22T13:33:30.838Z,97969.72
2022-12-22T13:35:59.679Z,97964.75
2022-12-22T13:38:31.348Z,97964.00
2022-12-22T13:41:02.959Z,97950.34
2022-12-22T13:43:33.304Z,97942.72
2022-12-22T13:46:03.175Z,97934.56
2022-12-22T13:48:39.995Z,97924.13
2022-12-22T13:51:27.796Z,97937.13
2022-12-22T13:54:08.302Z,97936.53
2022-12-22T13:56:48.663Z,97932.06
2022-12-22T13:59:42.624Z,97936.09
2022-12-22T14:02:10.223Z,97936.25
2022-12-22T14:04:40.528Z,97919.41
2022-12-22T14:07:26.179Z,97917.16
2022-12-22T14:09:56.934Z,97902.13
2022-12-22T14:12:32.104Z,97903.00
2022-12-22T14:15:03.558Z,97902.78
2022-12-22T14:17:37.011Z,97884.56
2022-12-22T14:20:27.381Z,97908.19
2022-12-22T14:23:01.958Z,97897.75
2022-12-22T14:25:36.649Z,97897.75
2022-12-22T14:28:07.075Z,97904.63
2022-12-22T14:30:42.453Z,97889.16
2022-12-22T14:33:28.100Z,97881.59
2022-12-22T14:36:23.649Z,97872.41
2022-12-22T14:38:54.040Z,97877.41
2022-12-22T14:41:42.294Z,97861.94
2022-12-22T14:44:18.690Z,97851.19
2022-12-22T14:47:02.918Z,97833.81
2022-12-22T14:49:30.657Z,97836.25
2022-12-22T14:52:08.524Z,97841.25
2022-12-22T14:54:36.209Z,97846.50
2022-12-22T14:57:16.387Z,97832.34
2022-12-22T14:59:59.432Z,97813.38
2022-12-22T15:02:40.631Z,97828.41
2022-12-22T15:05:33.567Z,97815.78
2022-12-22T15:08:07.422Z,97814.97
2022-12-22T15:10:46.372Z,97803.41
2022-12-22T15:13:27.745Z,97801.81
2022-12-22T15:15:55.432Z,97797.09
2022-12-22T15:18:27.826Z,97786.03
2022-12-22T15:20:56.921Z,97774.69
2022-12-22T15:23:24.597Z,97769.19
2022-12-22T15:25:52.435Z,97775.50
2022-12-22T15:28:20.000Z,97759.69
2022-12-22T15:30:47.696Z,97755.72
2022-12-22T15:33:18.193Z,97756.00
2022-12-22T15:35:46.777Z,97753.34
2022-12-22T15:38:23.090Z,97739.38
2022-12-22T15:40:51.147Z,97739.88
2022-12-22T15:46:07.660Z,97738.84
2022-12-22T15:48:38.620Z,97729.88
2022-12-22T15:51:09.376Z,97713.28
2022-12-22T15:53:37.569Z,97710.13
2022-12-22T15:56:05.361Z,97701.19
2022-12-22T15:58:36.832Z,97716.19
2022-12-22T16:01:04.694Z,97703.34
2022-12-22T16:03:32.392Z,97699.13
2022-12-22T16:06:01.036Z,97688.34
2022-12-22T16:08:33.402Z,97684.66
2022-12-22T16:11:02.045Z,97665.72
2022-12-22T16:13:30.082Z,97664.91
2022-12-22T16:15:58.706Z,97660.72
2022-12-22T16:18:26.479Z,97677.03
2022-12-22T16:20:54.790Z,97645.47
2022-12-22T16:23:27.620Z,97635.72
2022-12-22T16:26:02.067Z,97651.25
2022-12-22T16:28:30.694Z,97641.25
2022-12-22T16:30:58.611Z,97629.16
2022-12-22T16:33:26.386Z,97633.09
2022-12-22T16:35:54.190Z,97623.34
2022-12-22T16:38:22.620Z,97620.72
2022-12-22T16:40:54.050Z,97619.94
2022-12-22T16:46:24.223Z,97590.75
2022-12-22T16:48:56.282Z,97591.50
2022-12-22T16:51:37.560Z,97604.38
2022-12-22T16:54:05.173Z,97595.97
2022-12-22T16:56:33.276Z,97584.13
2022-12-22T16:59:03.261Z,97575.69
2022-12-22T17:01:44.269Z,97573.31
2022-12-22T17:04:20.680Z,97568.84
2022-12-22T17:06:53.584Z,97556.19
2022-12-22T17:09:33.098Z,97569.16
2022-12-22T17:12:03.656Z,97555.94
2022-12-22T17:14:42.568Z,97535.94
2022-12-22T17:17:16.806Z,97543.06
2022-12-22T17:19:45.358Z,97533.31
2022-12-22T17:22:31.323Z,97544.38
2022-12-22T17:25:02.539Z,97526.97
2022-12-22T17:27:33.247Z,97518.00
2022-12-22T17:30:03.927Z,97477.84
2022-12-22T17:32:31.890Z,97511.16
2022-12-22T17:34:59.438Z,97471.72
2022-12-22T17:37:26.963Z,97496.69
2022-12-22T17:40:01.035Z,97495.88
2022-12-22T17:42:31.820Z,97487.72
2022-12-22T17:44:59.500Z,97484.09
2022-12-22T17:47:33.408Z,97472.00
2022-12-22T17:50:02.496Z,97475.22
2022-12-22T17:52:31.322Z,97476.13
2022-12-22T17:54:59.288Z,97458.72
2022-12-22T17:57:31.411Z,97462.88
2022-12-22T17:59:59.084Z,97456.75
2022-12-22T18:02:27.193Z,97464.44
2022-12-22T18:04:54.903Z,97445.69
2022-12-22T18:07:24.819Z,97453.91
2022-12-22T18:09:58.016Z,97448.28
2022-12-22T18:12:26.224Z,97435.34
2022-12-22T18:14:53.862Z,97436.09
2022-12-22T18:17:35.811Z,97448.13
2022-12-22T18:20:04.204Z,97432.06
2022-12-22T18:22:31.733Z,97428.19
2022-12-22T18:24:59.209Z,97425.22
2022-12-22T18:27:26.704Z,97420.97
2022-12-22T18:29:54.182Z,97424.63
2022-12-22T18:32:27.414Z,97412.19
2022-12-22T18:34:55.590Z,97404.28
2022-12-22T18:37:23.193Z,97405.88
2022-12-22T18:39:50.701Z,97401.13
2022-12-22T18:42:26.567Z,97402.94
2022-12-22T18:44:54.153Z,97396.50
2022-12-22T18:47:21.737Z,97399.69
2022-12-22T18:49:49.364Z,97391.28
2022-12-22T18:52:22.726Z,97395.22
2022-12-22T18:54:50.350Z,97380.25
2022-12-22T18:57:20.201Z,97388.63
2022-12-22T18:59:50.983Z,97379.97
2022-12-22T19:02:28.769Z,97382.09
2022-12-22T19:04:57.358Z,97384.16
2022-12-22T19:07:29.797Z,97376.53
2022-12-22T19:10:09.751Z,97379.38
2022-12-22T19:12:37.337Z,97372.06
2022-12-22T19:15:06.581Z,97372.56
2022-12-22T19:17:34.431Z,97378.84
2022-12-22T19:20:01.887Z,97368.88
2022-12-22T19:22:31.284Z,97366.53
2022-12-22T19:24:59.268Z,97366.25
2022-12-22T19:27:28.185Z,97362.06
2022-12-22T19:30:03.640Z,97354.97
2022-12-22T19:32:42.208Z,97351.84
2022-12-22T19:35:21.211Z,97346.88
2022-12-22T19:37:50.748Z,97351.06
2022-12-22T19:40:20.631Z,97351.59
2022-12-22T19:42:50.610Z,97348.97
2022-12-22T19:45:27.192Z,97350.00
2022-12-22T19:47:57.385Z,97336.63
2022-12-22T19:50:27.356Z,97328.50
2022-12-22T19:52:56.631Z,97323.78
2022-12-22T19:55:44.664Z,97325.63
2022-12-22T19:58:39.830Z,97315.13
2022-12-22T20:01:26.617Z,97309.63
2022-12-22T20:04:12.954Z,97304.88
2022-12-22T20:06:40.435Z,97292.25
2022-12-22T20:09:07.880Z,97292.28
2022-12-22T20:11:35.446Z,97274.97
2022-12-22T20:14:03.104Z,97278.63
2022-12-22T20:16:30.609Z,97277.88
2022-12-22T20:18:58.103Z,97276.00
2022-12-22T20:21:29.715Z,97278.09
2022-12-22T20:23:59.889Z,97267.84
2022-12-22T20:26:28.140Z,97261.25
2022-12-22T20:28:55.621Z,97251.34
2022-12-22T20:31:24.585Z,97259.94
2022-12-22T20:33:55.207Z,97256.31
2022-12-22T20:36:26.640Z,97257.31
2022-12-22T20:38:55.878Z,97250.78
2022-12-22T20:41:24.198Z,97251.84
2022-12-22T20:43:53.702Z,97255.00
2022-12-22T20:46:27.897Z,97252.94
2022-12-22T20:48:59.400Z,97255.28
2022-12-22T20:51:30.730Z,97242.97
2022-12-22T20:53:58.780Z,97243.78
2022-12-22T20:56:26.146Z,97239.31
2022-12-22T20:58:54.552Z,97227.22
2022-12-22T21:01:23.201Z,97234.59
2022-12-22T21:03:51.137Z,97227.47
2022-12-22T21:06:29.510Z,97215.72
2022-12-22T21:08:59.281Z,97217.81
2022-12-22T21:11:28.415Z,97208.91
2022-12-22T21:13:56.741Z,97196.63
2022-12-22T21:16:27.037Z,97201.31
2022-12-22T21:18:55.074Z,97199.75
2022-12-22T21:21:23.087Z,97202.63
2022-12-22T21:23:51.690Z,97202.63
2022-12-22T21:26:21.956Z,97191.09
2022-12-22T21:28:50.240Z,97190.56
2022-12-22T21:31:17.912Z,97185.31
2022-12-22T21:33:45.829Z,97171.94
2022-12-22T21:36:21.018Z,97173.28
2022-12-22T21:38:49.900Z,97177.72
2022-12-22T21:41:17.328Z,97167.50
2022-12-22T21:43:44.895Z,97170.38
2022-12-22T21:46:13.782Z,97178.50
2022-12-22T21:48:41.427Z,97169.59
2022-12-22T21:51:12.342Z,97166.44
2022-12-22T21:53:39.772Z,97174.03
2022-12-22T21:56:17.954Z,97180.88
2022-12-22T21:58:45.841Z,97173.03
2022-12-22T22:01:16.383Z,97174.28
2022-12-22T22:03:44.039Z,97156.72
2022-12-22T22:06:11.849Z,97151.47
2022-12-22T22:08:39.335Z,97152.50
2022-12-22T22:11:17.490Z,97159.59
2022-12-22T22:13:45.168Z,97142.03
2022-12-22T22:16:12.986Z,97146.50
2022-12-22T22:18:42.197Z,97136.50
2022-12-22T22:21:11.696Z,97138.59
2022-12-22T22:23:40.001Z,97117.63
2022-12-22T22:26:08.233Z,97144.09
2022-12-22T22:28:36.175Z,97127.06
2022-12-22T22:31:10.515Z,97143.34
2022-12-22T22:33:38.331Z,97110.53
2022-12-22T22:36:09.191Z,97125.22
2022-12-22T22:38:36.888Z,97116.06
2022-12-22T22:41:04.699Z,97115.53
2022-12-22T22:43:32.222Z,97111.31
2022-12-22T22:45:59.665Z,97113.13
2022-12-22T22:48:27.202Z,97116.81
2022-12-22T22:50:54.778Z,97110.47
2022-12-22T22:53:22.274Z,97108.94
2022-12-22T22:55:49.727Z,97109.97
2022-12-22T22:58:17.339Z,97107.06
2022-12-22T23:00:44.894Z,97108.66
2022-12-22T23:03:12.606Z,97116.00
2022-12-22T23:05:40.166Z,97115.72
2022-12-22T23:08:07.750Z,97117.53
2022-12-22T23:10:41.397Z,97103.59
2022-12-22T23:13:09.814Z,97115.13
2022-12-22T23:15:37.548Z,97109.34
2022-12-22T23:18:05.235Z,97111.69
2022-12-22T23:20:32.694Z,97106.44
2022-12-22T23:23:00.289Z,97098.53
2022-12-22T23:25:28.098Z,97103.78
2022-12-22T23:27:55.606Z,97106.41
2022-12-22T23:30:23.177Z,97104.28
2022-12-22T23:32:50.657Z,97097.94
2022-12-22T23:35:18.076Z,97103.44
2022-12-22T23:37:45.615Z,97098.13
2022-12-22T23:43:01.478Z,97090.97
2022-12-22T23:45:29.839Z,97096.72
2022-12-22T23:47:57.491Z,97099.88
2022-12-22T23:50:25.674Z,97100.63
2022-12-22T23:52:54.371Z,97092.25
2022-12-22T23:55:21.922Z,97099.81
2022-12-22T23:57:54.060Z,97089.31
